Time;durP1;ratioP1;P1;durP2;ratioP2;P2;SDS_P1;SDS_P2;PMS_P1;PMS_P2;Temp;Humidity;BMP_temperature;BMP_pressure;BME280_temperature;BME280_humidity;BME280_pressure;Samples;Min_cycle;Max_cycle;Signal;HPM_P1;HPM_P2
2021/11/04 00:02:05;;;;;;;;;;;;;;;-144.99;100.00;52484.78;4992788;28;20020;-68
2021/11/04 00:04:31;;;;;;;;;;;;;;;-144.99;100.00;52501.09;4991681;28;20463;-69
2021/11/04 00:06:58;;;;;;;;;;;;;;;-144.99;100.00;52448.09;4991579;28;20442;-70
2021/11/04 00:09:24;;;;;;;;;;;;;;;-144.99;100.00;52490.91;4992471;28;20088;-70
2021/11/04 00:11:52;;;;;;;;;;;;;;;-144.99;100.00;52472.56;4991226;28;19988;-70
2021/11/04 00:14:19;;;;;;;;;;;;;;;-144.99;100.00;52462.34;4995483;28;19978;-70
2021/11/04 00:16:45;;;;;;;;;;;;;;;-144.99;100.00;52513.31;4998648;28;19982;-70
2021/11/04 00:19:11;;;;;;;;;;;;;;;-144.99;100.00;52435.88;4992255;28;19982;-70
2021/11/04 00:21:38;;;;;;;;;;;;;;;-144.99;100.00;52472.56;4996995;28;20217;-70
2021/11/04 00:24:04;;;;;;;;;;;;;;;-144.99;100.00;52484.78;4992961;28;20390;-71
2021/11/04 00:26:31;;;;;;;;;;;;;;;-144.99;100.00;52452.16;4996559;28;19978;-70
2021/11/04 00:28:59;;;;;;;;;;;;;;;-144.99;100.00;52492.94;5002495;28;20005;-71
2021/11/04 00:31:26;;;;;;;;;;;;;;;-144.99;100.00;52476.63;4995229;28;19960;-69
2021/11/04 00:33:52;;;;;;;;;;;;;;;-144.99;100.00;52488.84;4999400;28;19995;-70
2021/11/04 00:36:19;;;;;;;;;;;;;;;-144.99;100.00;52464.41;4992357;28;19978;-66
2021/11/04 00:38:46;;;;;;;;;;;;;;;-144.99;100.00;52468.47;4991444;28;20598;-66
2021/11/04 00:41:12;;;;;;;;;;;;;;;-144.99;100.00;52490.91;4992105;28;19982;-66
2021/11/04 00:43:39;;;;;;;;;;;;;;;-144.99;100.00;52480.72;4997163;28;19990;-66
2021/11/04 00:46:07;;;;;;;;;;;;;;;-144.99;100.00;52444.03;5005338;28;20037;-66
2021/11/04 00:48:33;;;;;;;;;;;;;;;-144.99;100.00;52468.47;5011497;28;19998;-66
2021/11/04 00:51:00;;;;;;;;;;;;;;;-144.99;100.00;52452.16;4994841;28;19982;-66
2021/11/04 00:53:26;;;;;;;;;;;;;;;-144.99;100.00;52476.63;4992006;28;19998;-67
2021/11/04 00:55:56;;;;;;;;;;;;;;;-144.99;100.00;52494.97;4990100;28;19982;-66
2021/11/04 00:58:22;;;;;;;;;;;;;;;-144.99;100.00;52464.41;4991635;28;19989;-66
2021/11/04 01:00:48;;;;;;;;;;;;;;;-144.99;100.00;52480.72;4991718;28;19982;-66
2021/11/04 01:03:16;;;;;;;;;;;;;;;-144.99;100.00;52423.63;4990922;28;20397;-66
2021/11/04 01:05:43;;;;;;;;;;;;;;;-144.99;100.00;52474.59;4990270;28;20061;-66
2021/11/04 01:08:09;;;;;;;;;;;;;;;-144.99;100.00;52452.16;4977681;28;20489;-66
2021/11/04 01:10:36;;;;;;;;;;;;;;;-144.99;100.00;52448.09;4991286;28;19982;-66
2021/11/04 01:13:02;;;;;;;;;;;;;;;-144.99;100.00;52497.00;4990887;28;19990;-66
2021/11/04 01:15:29;;;;;;;;;;;;;;;-144.99;100.00;52444.03;4993004;28;19974;-66
2021/11/04 01:17:55;;;;;;;;;;;;;;;-144.99;100.00;52472.56;4984700;28;19986;-66
2021/11/04 01:20:23;;;;;;;;;;;;;;;-144.99;100.00;52480.72;4986055;28;20454;-67
2021/11/04 01:22:50;;;;;;;;;;;;;;;-144.99;100.00;52472.56;4997244;28;20481;-67
2021/11/04 01:25:16;;;;;;;;;;;;;;;-144.99;100.00;52478.66;4991288;28;19982;-67
2021/11/04 01:27:43;;;;;;;;;;;;;;;-144.99;100.00;52507.19;4993855;28;19978;-66
2021/11/04 01:30:09;;;;;;;;;;;;;;;-144.99;100.00;52464.41;5000517;28;19994;-65
2021/11/04 01:32:36;;;;;;;;;;;;;;;-144.99;100.00;52476.63;4991285;28;20001;-65
2021/11/04 01:35:03;;;;;;;;;;;;;;;-144.99;100.00;52472.56;4995382;28;19989;-64
2021/11/04 01:37:31;;;;;;;;;;;;;;;-144.99;100.00;52484.78;4983205;28;19975;-65
2021/11/04 01:39:57;;;;;;;;;;;;;;;-144.99;100.00;52525.56;4985540;28;20037;-64
2021/11/04 01:42:24;;;;;;;;;;;;;;;-144.99;100.00;52444.03;4990723;28;20002;-65
2021/11/04 01:44:50;;;;;;;;;;;;;;;-144.99;100.00;52472.56;4997746;28;20005;-64
2021/11/04 01:47:17;;;;;;;;;;;;;;;-144.99;100.00;52456.25;4995506;28;20355;-64
2021/11/04 01:49:43;;;;;;;;;;;;;;;-144.99;100.00;52468.47;4990831;28;20005;-64
2021/11/04 01:52:11;;;;;;;;;;;;;;;-144.99;100.00;52472.56;4990810;28;20053;-64
2021/11/04 01:54:38;;;;;;;;;;;;;;;-144.99;100.00;52458.28;4991822;28;19990;-65
2021/11/04 01:57:05;;;;;;;;;;;;;;;-144.99;100.00;52456.25;5006599;28;20423;-65
2021/11/04 01:59:32;;;;;;;;;;;;;;;-144.99;100.00;52486.81;5006918;28;19954;-65
2021/11/04 02:02:00;;;;;;;;;;;;;;;-144.99;100.00;52513.31;5007841;28;19986;-65
2021/11/04 02:04:30;;;;;;;;;;;;;;;-144.99;100.00;52464.41;5008039;28;20000;-65
2021/11/04 02:06:59;;;;;;;;;;;;;;;-144.99;100.00;52456.25;5006235;28;19989;-64
2021/11/04 02:09:29;;;;;;;;;;;;;;;-144.99;100.00;52494.97;4996080;28;19994;-64
2021/11/04 02:12:00;;;;;;;;;;;;;;;-144.99;100.00;52458.28;5007562;28;19978;-64
2021/11/04 02:14:28;;;;;;;;;;;;;;;-144.99;100.00;52478.66;5005720;28;19981;-64
2021/11/04 02:16:56;;;;;;;;;;;;;;;-144.99;100.00;52468.47;5009465;28;20056;-63
2021/11/04 02:19:26;;;;;;;;;;;;;;;-144.99;100.00;52435.88;4995296;28;20133;-63
2021/11/04 02:21:56;;;;;;;;;;;;;;;-144.99;100.00;52460.31;5004757;28;19978;-63
2021/11/04 02:24:26;;;;;;;;;;;;;;;-144.99;100.00;52456.25;5003238;28;19989;-62
2021/11/04 02:26:54;;;;;;;;;;;;;;;-144.99;100.00;52486.81;5006365;28;19982;-66
2021/11/04 02:29:21;;;;;;;;;;;;;;;-144.99;100.00;52476.63;5004053;28;20006;-64
2021/11/04 02:31:49;;;;;;;;;;;;;;;-144.99;100.00;52472.56;4989643;28;20037;-65
2021/11/04 02:34:15;;;;;;;;;;;;;;;-144.99;100.00;52490.91;5006785;28;19980;-63
2021/11/04 02:36:43;;;;;;;;;;;;;;;-144.99;100.00;52460.31;5000542;28;20440;-62
2021/11/04 02:39:09;;;;;;;;;;;;;;;-144.99;100.00;52480.72;5002357;28;19982;-63
2021/11/04 02:41:36;;;;;;;;;;;;;;;-144.99;100.00;52456.25;5003509;28;19980;-64
2021/11/04 02:44:08;;;;;;;;;;;;;;;-144.99;100.00;52488.84;5004438;28;19990;-64
2021/11/04 02:46:34;;;;;;;;;;;;;;;-144.99;100.00;52452.16;5011678;28;19974;-64
2021/11/04 02:49:01;;;;;;;;;;;;;;;-144.99;100.00;52456.25;5002932;28;20008;-64
2021/11/04 02:51:27;;;;;;;;;;;;;;;-144.99;100.00;52517.41;5000794;28;19981;-64
2021/11/04 02:53:54;;;;;;;;;;;;;;;-144.99;100.00;52452.16;5000240;28;19994;-64
2021/11/04 02:56:20;;;;;;;;;;;;;;;-144.99;100.00;52446.06;5000449;28;19984;-63
2021/11/04 02:58:47;;;;;;;;;;;;;;;-144.99;100.00;52456.25;4992478;28;20428;-64
2021/11/04 03:01:14;;;;;;;;;;;;;;;-144.99;100.00;52464.41;4996732;28;20088;-64
2021/11/04 03:03:41;;;;;;;;;;;;;;;-144.99;100.00;52456.25;4999080;28;20005;-63
2021/11/04 03:06:07;;;;;;;;;;;;;;;-144.99;100.00;52464.41;4999163;28;20370;-64
2021/11/04 03:08:33;;;;;;;;;;;;;;;-144.99;100.00;52460.31;4999072;28;20073;-65
2021/11/04 03:11:01;;;;;;;;;;;;;;;-144.99;100.00;52458.28;4998273;28;19994;-62
2021/11/04 03:13:28;;;;;;;;;;;;;;;-144.99;100.00;52444.03;4997343;28;20081;-63
2021/11/04 03:15:56;;;;;;;;;;;;;;;-144.99;100.00;52497.00;5007959;28;19990;-64
2021/11/04 03:18:23;;;;;;;;;;;;;;;-144.99;100.00;52519.44;5001040;28;19979;-64
2021/11/04 03:20:52;;;;;;;;;;;;;;;-144.99;100.00;52468.47;4987209;28;19978;-64
2021/11/04 03:23:18;;;;;;;;;;;;;;;-144.99;100.00;52490.91;5006547;28;20001;-64
2021/11/04 03:25:46;;;;;;;;;;;;;;;-144.99;100.00;52464.41;4999725;28;19982;-63
2021/11/04 03:28:13;;;;;;;;;;;;;;;-144.99;100.00;52460.31;4998716;28;19983;-64
2021/11/04 03:30:40;;;;;;;;;;;;;;;-144.99;100.00;52458.28;4986233;28;19994;-63
2021/11/04 03:33:09;;;;;;;;;;;;;;;-144.99;100.00;52472.56;5003126;28;19997;-70
2021/11/04 03:35:37;;;;;;;;;;;;;;;-144.99;100.00;52448.09;5008508;28;20232;-70
2021/11/04 03:38:05;;;;;;;;;;;;;;;-144.99;100.00;52448.09;4999582;28;19990;-70
2021/11/04 03:40:32;;;;;;;;;;;;;;;-144.99;100.00;52497.00;4994662;28;19985;-71
2021/11/04 03:42:58;;;;;;;;;;;;;;;-144.99;100.00;52448.09;5003489;28;20077;-70
2021/11/04 03:45:25;;;;;;;;;;;;;;;-144.99;100.00;52460.31;5002271;28;19985;-70
2021/11/04 03:47:52;;;;;;;;;;;;;;;-144.99;100.00;52458.28;5005246;28;20033;-76
2021/11/04 03:50:19;;;;;;;;;;;;;;;-144.99;100.00;52468.47;5000239;28;19994;-70
2021/11/04 03:52:46;;;;;;;;;;;;;;;-144.99;100.00;52452.16;5005042;28;20496;-71
2021/11/04 03:55:14;;;;;;;;;;;;;;;-144.99;100.00;52468.47;5004931;28;20081;-71
2021/11/04 03:57:41;;;;;;;;;;;;;;;-144.99;100.00;52472.56;4976357;28;20244;-73
2021/11/04 04:00:09;;;;;;;;;;;;;;;-144.99;100.00;52448.09;4993338;28;19989;-72
2021/11/04 04:02:35;;;;;;;;;;;;;;;-144.99;100.00;52460.31;4992859;28;20116;-73
2021/11/04 04:05:02;;;;;;;;;;;;;;;-144.99;100.00;52478.66;4992638;28;20188;-67
2021/11/04 04:10:05;;;;;;;;;;;;;;;-144.99;100.00;52464.41;5014855;28;19993;-59
2021/11/04 04:12:31;;;;;;;;;;;;;;;-144.99;100.00;52433.81;5027893;28;20002;-59
2021/11/04 04:14:57;;;;;;;;;;;;;;;-144.99;100.00;52476.63;5022929;28;19990;-62
2021/11/04 04:17:24;;;;;;;;;;;;;;;-144.99;100.00;52470.50;5024666;28;19974;-59
2021/11/04 04:19:51;;;;;;;;;;;;;;;-144.99;100.00;52460.31;5009419;28;20476;-59
2021/11/04 04:22:17;;;;;;;;;;;;;;;-144.99;100.00;52492.94;5019696;28;20001;-61
2021/11/04 04:24:44;;;;;;;;;;;;;;;-144.99;100.00;52484.78;5019907;28;20435;-61
2021/11/04 04:27:11;;;;;;;;;;;;;;;-144.99;100.00;52423.63;5011790;28;19990;-63
2021/11/04 04:29:38;;;;;;;;;;;;;;;-144.99;100.00;52484.78;5010094;28;20435;-61
2021/11/04 04:32:04;;;;;;;;;;;;;;;-144.99;100.00;52452.16;5012362;28;20352;-61
2021/11/04 04:34:31;;;;;;;;;;;;;;;-144.99;100.00;52480.72;5027455;28;19974;-62
2021/11/04 04:36:57;;;;;;;;;;;;;;;-144.99;100.00;52488.84;5012867;28;19986;-62
2021/11/04 04:39:25;;;;;;;;;;;;;;;-144.99;100.00;52480.72;5026707;28;20397;-63
2021/11/04 04:41:52;;;;;;;;;;;;;;;-144.99;100.00;52456.25;5012372;28;20167;-63
2021/11/04 04:44:20;;;;;;;;;;;;;;;-144.99;100.00;52472.56;5020390;28;20426;-62
2021/11/04 04:46:46;;;;;;;;;;;;;;;-144.99;100.00;52448.09;5017785;28;20450;-62
2021/11/04 04:49:12;;;;;;;;;;;;;;;-144.99;100.00;52464.41;5020132;28;20001;-63
2021/11/04 04:51:39;;;;;;;;;;;;;;;-144.99;100.00;52484.78;5028842;28;19988;-63
2021/11/04 04:54:05;;;;;;;;;;;;;;;-144.99;100.00;52484.78;5029099;28;20009;-63
2021/11/04 04:56:31;;;;;;;;;;;;;;;-144.99;100.00;52456.25;5028436;28;20441;-63
2021/11/04 04:58:58;;;;;;;;;;;;;;;-144.99;100.00;52492.94;5018242;28;20032;-63
2021/11/04 05:01:26;;;;;;;;;;;;;;;-144.99;100.00;52454.22;5027549;28;19982;-63
2021/11/04 05:03:53;;;;;;;;;;;;;;;-144.99;100.00;52464.41;5029063;28;19998;-67
2021/11/04 05:06:19;;;;;;;;;;;;;;;-144.99;100.00;52478.66;5024343;28;20415;-66
2021/11/04 05:08:46;;;;;;;;;;;;;;;-144.99;100.00;52482.75;5017358;28;20057;-66
2021/11/04 05:11:12;;;;;;;;;;;;;;;-144.99;100.00;52521.47;5027892;28;20450;-67
2021/11/04 05:13:39;;;;;;;;;;;;;;;-144.99;100.00;52448.09;5028859;28;19996;-67
2021/11/04 05:16:05;;;;;;;;;;;;;;;-144.99;100.00;52509.25;5029255;28;19978;-66
2021/11/04 05:18:33;;;;;;;;;;;;;;;-144.99;100.00;52460.31;5028374;28;19988;-64
2021/11/04 05:20:59;;;;;;;;;;;;;;;-144.99;100.00;52484.78;5015947;28;19981;-65
2021/11/04 05:23:26;;;;;;;;;;;;;;;-144.99;100.00;52476.63;5015665;28;20366;-66
2021/11/04 05:25:52;;;;;;;;;;;;;;;-144.99;100.00;52462.34;5009192;28;19989;-67
2021/11/04 05:28:18;;;;;;;;;;;;;;;-144.99;100.00;52501.09;5017731;28;20075;-66
2021/11/04 05:30:45;;;;;;;;;;;;;;;-144.99;100.00;52472.56;5011382;28;19998;-66
2021/11/04 05:33:11;;;;;;;;;;;;;;;-144.99;100.00;52468.47;5024258;28;19996;-66
2021/11/04 05:35:39;;;;;;;;;;;;;;;-144.99;100.00;52505.16;5018095;28;19974;-68
2021/11/04 05:38:05;;;;;;;;;;;;;;;-144.99;100.00;52482.75;5024952;28;19997;-65
2021/11/04 05:40:34;;;;;;;;;;;;;;;-144.99;100.00;52476.63;5026825;28;19978;-67
2021/11/04 05:43:01;;;;;;;;;;;;;;;-144.99;100.00;52464.41;5018140;28;20000;-68
2021/11/04 05:45:27;;;;;;;;;;;;;;;-144.99;100.00;52472.56;5029189;28;19974;-67
2021/11/04 05:47:53;;;;;;;;;;;;;;;-144.99;100.00;52488.84;5019351;28;20042;-67
2021/11/04 05:50:20;;;;;;;;;;;;;;;-144.99;100.00;52490.91;5032458;28;20112;-67
2021/11/04 05:52:51;;;;;;;;;;;;;;;-144.99;100.00;52464.41;5038826;28;19993;-67
2021/11/04 05:55:17;;;;;;;;;;;;;;;-144.99;100.00;52468.47;5043771;28;19985;-67
2021/11/04 05:57:44;;;;;;;;;;;;;;;-144.99;100.00;52492.94;5030615;28;19982;-67
2021/11/04 06:00:10;;;;;;;;;;;;;;;-144.99;100.00;52480.72;5033531;28;20037;-71
2021/11/04 06:02:37;;;;;;;;;;;;;;;-144.99;100.00;52472.56;5024356;28;20101;-64
2021/11/04 06:05:03;;;;;;;;;;;;;;;-144.99;100.00;52431.78;5021301;28;20028;-65
2021/11/04 06:07:30;;;;;;;;;;;;;;;-144.99;100.00;52444.03;5020843;28;20422;-65
2021/11/04 06:09:58;;;;;;;;;;;;;;;-144.99;100.00;52472.56;5023053;28;19994;-64
2021/11/04 06:12:24;;;;;;;;;;;;;;;-144.99;100.00;52468.47;5020876;28;20009;-65
2021/11/04 06:14:50;;;;;;;;;;;;;;;-144.99;100.00;52492.94;5040024;28;20084;-65
2021/11/04 06:17:17;;;;;;;;;;;;;;;-144.99;100.00;52480.72;5035397;28;19984;-65
2021/11/04 06:19:43;;;;;;;;;;;;;;;-144.99;100.00;52460.31;4333758;28;10000468;-65
2021/11/04 06:22:10;;;;;;;;;;;;;;;-144.99;100.00;52439.94;5026016;28;20004;-64
2021/11/04 06:24:36;;;;;;;;;;;;;;;-144.99;100.00;52486.81;5016912;28;19986;-65
2021/11/04 06:27:04;;;;;;;;;;;;;;;-144.99;100.00;52490.91;5016444;28;19982;-65
2021/11/04 06:29:30;;;;;;;;;;;;;;;-144.99;100.00;52454.22;5018181;28;19982;-65
2021/11/04 06:31:57;;;;;;;;;;;;;;;-144.99;100.00;52484.78;5025318;28;20007;-70
2021/11/04 06:34:23;;;;;;;;;;;;;;;-144.99;100.00;52492.94;5043085;28;19978;-70
2021/11/04 06:36:50;;;;;;;;;;;;;;;-144.99;100.00;52460.31;5026128;28;19978;-69
2021/11/04 06:39:16;;;;;;;;;;;;;;;-144.99;100.00;52464.41;5031027;28;20020;-70
2021/11/04 06:41:42;;;;;;;;;;;;;;;-144.99;100.00;52472.56;5030584;28;19964;-70
2021/11/04 06:44:10;;;;;;;;;;;;;;;-144.99;100.00;52492.94;5034523;28;19988;-70
2021/11/04 06:46:37;;;;;;;;;;;;;;;-144.99;100.00;52476.63;5028563;28;19977;-71
2021/11/04 06:49:07;;;;;;;;;;;;;;;-144.99;100.00;52427.72;5016911;28;19992;-71
2021/11/04 06:51:35;;;;;;;;;;;;;;;-144.99;100.00;52480.72;5014109;28;20028;-69
2021/11/04 06:54:02;;;;;;;;;;;;;;;-144.99;100.00;52452.16;5020451;28;20008;-70
2021/11/04 06:56:37;;;;;;;;;;;;;;;-144.99;100.00;52494.97;5015165;28;19982;-69
2021/11/04 06:59:05;;;;;;;;;;;;;;;-144.99;100.00;52486.81;5009833;28;19985;-70
2021/11/04 07:01:34;;;;;;;;;;;;;;;-144.99;100.00;52448.09;5009648;28;19984;-69
2021/11/04 07:04:03;;;;;;;;;;;;;;;-144.99;100.00;52509.25;5012797;28;19994;-70
2021/11/04 07:06:31;;;;;;;;;;;;;;;-144.99;100.00;52464.41;5016194;28;20007;-70
2021/11/04 07:08:59;;;;;;;;;;;;;;;-144.99;100.00;52476.63;5015831;28;20158;-70
2021/11/04 07:11:26;;;;;;;;;;;;;;;-144.99;100.00;52460.31;5028480;28;20005;-70
2021/11/04 07:13:53;;;;;;;;;;;;;;;-144.99;100.00;52435.88;5027126;28;20441;-70
2021/11/04 07:16:22;;;;;;;;;;;;;;;-144.99;100.00;52509.25;5021440;28;19992;-70
2021/11/04 07:18:50;;;;;;;;;;;;;;;-144.99;100.00;52480.72;5015904;28;19978;-70
2021/11/04 07:21:21;;;;;;;;;;;;;;;-144.99;100.00;52456.25;5028772;28;19985;-70
2021/11/04 07:23:52;;;;;;;;;;;;;;;-144.99;100.00;52511.28;5021050;28;20001;-70
2021/11/04 07:26:21;;;;;;;;;;;;;;;-144.99;100.00;52480.72;5013369;28;19989;-70
2021/11/04 07:28:53;;;;;;;;;;;;;;;-144.99;100.00;52488.84;5010959;28;19986;-70
2021/11/04 07:31:21;;;;;;;;;;;;;;;-144.99;100.00;52480.72;5008709;28;20012;-70
2021/11/04 07:33:49;;;;;;;;;;;;;;;-144.99;100.00;52492.94;5025013;28;20496;-70
2021/11/04 07:36:17;;;;;;;;;;;;;;;-144.99;100.00;52462.34;5018896;28;19981;-71
2021/11/04 07:38:45;;;;;;;;;;;;;;;-144.99;100.00;52427.72;5020088;28;19978;-71
2021/11/04 07:41:11;;;;;;;;;;;;;;;-144.99;100.00;52431.78;5019798;28;20004;-70
2021/11/04 07:43:38;;;;;;;;;;;;;;;-144.99;100.00;52484.78;5027071;28;20003;-70
2021/11/04 07:46:04;;;;;;;;;;;;;;;-144.99;100.00;52497.00;5012735;28;20064;-70
2021/11/04 07:48:31;;;;;;;;;;;;;;;-144.99;100.00;52435.88;5009430;28;19992;-70
2021/11/04 07:50:58;;;;;;;;;;;;;;;-144.99;100.00;52476.63;5007712;28;20518;-69
2021/11/04 07:53:26;;;;;;;;;;;;;;;-144.99;100.00;52492.94;5006707;28;20002;-70
2021/11/04 07:55:54;;;;;;;;;;;;;;;-144.99;100.00;52464.41;5018198;28;19981;-70
2021/11/04 07:58:20;;;;;;;;;;;;;;;-144.99;100.00;52468.47;5007944;28;20397;-70
2021/11/04 08:00:48;;;;;;;;;;;;;;;-144.99;100.00;52513.31;5008699;28;20433;-70
2021/11/04 08:03:15;;;;;;;;;;;;;;;-144.99;100.00;52523.50;5014220;28;19997;-70
2021/11/04 08:05:41;;;;;;;;;;;;;;;-144.99;100.00;52468.47;5026819;28;19993;-70
2021/11/04 08:08:08;;;;;;;;;;;;;;;-144.99;100.00;52464.41;5007620;28;20330;-69
2021/11/04 08:10:36;;;;;;;;;;;;;;;-144.99;100.00;52476.63;5007633;28;20005;-70
2021/11/04 08:13:07;;;;;;;;;;;;;;;-144.99;100.00;52435.88;5012343;28;19989;-70
2021/11/04 08:15:34;;;;;;;;;;;;;;;-144.99;100.00;52460.31;5024952;28;19993;-71
2021/11/04 08:18:01;;;;;;;;;;;;;;;-144.99;100.00;52460.31;5018098;28;19989;-70
2021/11/04 08:20:28;;;;;;;;;;;;;;;-144.99;100.00;52464.41;5007198;28;19982;-70
2021/11/04 08:22:55;;;;;;;;;;;;;;;-144.99;100.00;52501.09;5022105;28;20462;-70
2021/11/04 08:25:21;;;;;;;;;;;;;;;-144.99;100.00;52456.25;5015053;28;19974;-70
2021/11/04 08:27:49;;;;;;;;;;;;;;;-144.99;100.00;52448.09;5017672;28;19985;-70
2021/11/04 08:30:16;;;;;;;;;;;;;;;-144.99;100.00;52431.78;5020533;28;19983;-70
2021/11/04 08:32:43;;;;;;;;;;;;;;;-144.99;100.00;52492.94;5014634;28;19998;-70
2021/11/04 08:35:09;;;;;;;;;;;;;;;-144.99;100.00;52439.94;5023320;28;19985;-70
2021/11/04 08:37:36;;;;;;;;;;;;;;;-144.99;100.00;52472.56;5014887;28;19984;-70
2021/11/04 08:40:03;;;;;;;;;;;;;;;-144.99;100.00;52462.34;5011835;28;20353;-70
2021/11/04 08:42:29;;;;;;;;;;;;;;;-144.99;100.00;52452.16;5006668;28;20106;-71
2021/11/04 08:44:57;;;;;;;;;;;;;;;-144.99;100.00;52460.31;5020506;28;19982;-70
2021/11/04 08:47:23;;;;;;;;;;;;;;;-144.99;100.00;52480.72;5016781;28;19981;-70
2021/11/04 08:49:50;;;;;;;;;;;;;;;-144.99;100.00;52431.78;5010793;28;20072;-70
2021/11/04 08:52:16;;;;;;;;;;;;;;;-144.99;100.00;52456.25;5018740;28;20013;-70
2021/11/04 08:54:42;;;;;;;;;;;;;;;-144.99;100.00;52484.78;5007918;28;19966;-70
2021/11/04 08:57:12;;;;;;;;;;;;;;;-144.99;100.00;52456.25;5020357;28;19975;-70
2021/11/04 08:59:39;;;;;;;;;;;;;;;-144.99;100.00;52468.47;5023250;28;20424;-70
2021/11/04 09:02:06;;;;;;;;;;;;;;;-144.99;100.00;52448.09;5029788;28;20025;-70
2021/11/04 09:04:33;;;;;;;;;;;;;;;-144.99;100.00;52433.81;5021212;28;19982;-70
2021/11/04 09:06:59;;;;;;;;;;;;;;;-144.99;100.00;52452.16;5030532;28;20290;-71
2021/11/04 09:09:26;;;;;;;;;;;;;;;-144.99;100.00;52456.25;5025111;28;19992;-70
2021/11/04 09:11:52;;;;;;;;;;;;;;;-144.99;100.00;52468.47;5021807;28;19998;-70
2021/11/04 09:14:19;;;;;;;;;;;;;;;-144.99;100.00;52419.56;5037628;28;19978;-70
2021/11/04 09:16:45;;;;;;;;;;;;;;;-144.99;100.00;52448.09;5036157;28;20320;-70
2021/11/04 09:19:13;;;;;;;;;;;;;;;-144.99;100.00;52472.56;5040306;28;20014;-71
2021/11/04 09:21:40;;;;;;;;;;;;;;;-144.99;100.00;52452.16;5034795;28;20342;-70
2021/11/04 09:24:07;;;;;;;;;;;;;;;-144.99;100.00;52452.16;5038648;28;20403;-70
2021/11/04 09:26:34;;;;;;;;;;;;;;;-144.99;100.00;52456.25;5030342;28;19978;-70
2021/11/04 09:29:00;;;;;;;;;;;;;;;-144.99;100.00;52448.09;5033515;28;20312;-70
2021/11/04 09:31:27;;;;;;;;;;;;;;;-144.99;100.00;52448.09;5017186;28;20200;-70
2021/11/04 09:33:57;;;;;;;;;;;;;;;-144.99;100.00;52448.09;5018948;28;20104;-70
2021/11/04 09:36:26;;;;;;;;;;;;;;;-144.99;100.00;52444.03;5026754;28;20412;-71
2021/11/04 09:38:52;;;;;;;;;;;;;;;-144.99;100.00;52468.47;5017430;28;19990;-70
2021/11/04 09:41:19;;;;;;;;;;;;;;;-144.99;100.00;52492.94;5032055;28;20173;-69
2021/11/04 09:43:46;;;;;;;;;;;;;;;-144.99;100.00;52468.47;5021168;28;20409;-69
2021/11/04 09:46:13;;;;;;;;;;;;;;;-144.99;100.00;52533.69;5021604;28;19982;-70
2021/11/04 09:48:39;;;;;;;;;;;;;;;-144.99;100.00;52427.72;5018333;28;19978;-70
2021/11/04 09:51:06;;;;;;;;;;;;;;;-144.99;100.00;52464.41;5030170;28;19997;-70
2021/11/04 09:53:34;;;;;;;;;;;;;;;-144.99;100.00;52448.09;5025720;28;19997;-70
2021/11/04 09:56:01;;;;;;;;;;;;;;;-144.99;100.00;52456.25;5041898;28;19981;-70
2021/11/04 09:58:27;;;;;;;;;;;;;;;-144.99;100.00;52484.78;5032005;28;20024;-70
2021/11/04 10:00:54;;;;;;;;;;;;;;;-144.99;100.00;52439.94;5027358;28;20009;-70
2021/11/04 10:03:20;;;;;;;;;;;;;;;-144.99;100.00;52456.25;5022710;28;19997;-70
2021/11/04 10:05:47;;;;;;;;;;;;;;;-144.99;100.00;52460.31;5012671;28;19978;-70
2021/11/04 10:08:15;;;;;;;;;;;;;;;-144.99;100.00;52435.88;5022154;28;20036;-71
2021/11/04 10:10:43;;;;;;;;;;;;;;;-144.99;100.00;52480.72;5050702;22;20004;-69
2021/11/04 10:13:11;;;;;;;;;;;;;;;-144.99;100.00;52464.41;5068784;28;20003;-70
2021/11/04 10:15:39;;;;;;;;;;;;;;;-144.99;100.00;52472.56;5063502;28;19999;-70
2021/11/04 10:18:18;;;;;;;;;;;;;;;-144.99;100.00;52480.72;5068709;28;19981;-70
2021/11/04 10:20:52;;;;;;;;;;;;;;;-144.99;100.00;52480.72;5057758;28;20414;-70
2021/11/04 10:23:18;;;;;;;;;;;;;;;-144.99;100.00;52468.47;5068015;28;19997;-70
2021/11/04 10:25:48;;;;;;;;;;;;;;;-144.99;100.00;52427.72;5049689;28;19984;-70
2021/11/04 10:28:21;;;;;;;;;;;;;;;-144.99;100.00;52439.94;5051517;28;20380;-71
2021/11/04 10:30:48;;;;;;;;;;;;;;;-144.99;100.00;52456.25;5069454;28;20376;-70
2021/11/04 10:33:21;;;;;;;;;;;;;;;-144.99;100.00;52480.72;5068326;28;20541;-70
2021/11/04 10:35:54;;;;;;;;;;;;;;;-144.99;100.00;52468.47;5067355;28;20490;-70
2021/11/04 10:38:20;;;;;;;;;;;;;;;-144.99;100.00;52452.16;5069172;28;20150;-70
2021/11/04 10:40:50;;;;;;;;;;;;;;;-144.99;100.00;52476.63;5068223;28;19983;-70
2021/11/04 10:43:16;;;;;;;;;;;;;;;-144.99;100.00;52444.03;5071787;28;19993;-70
2021/11/04 10:45:42;;;;;;;;;;;;;;;-144.99;100.00;52456.25;5072013;28;19976;-69
2021/11/04 10:48:16;;;;;;;;;;;;;;;-144.99;100.00;52452.16;5069326;28;20027;-70
2021/11/04 10:50:43;;;;;;;;;;;;;;;-144.99;100.00;52423.63;5059067;28;19982;-70
2021/11/04 10:53:09;;;;;;;;;;;;;;;-144.99;100.00;52435.88;5048872;28;20386;-70
2021/11/04 10:55:36;;;;;;;;;;;;;;;-144.99;100.00;52480.72;5049225;28;19984;-69
2021/11/04 10:58:07;;;;;;;;;;;;;;;-144.99;100.00;52488.84;5082470;28;19988;-70
2021/11/04 11:00:37;;;;;;;;;;;;;;;-144.99;100.00;52446.06;5080582;28;19977;-70
2021/11/04 11:03:07;;;;;;;;;;;;;;;-144.99;100.00;52448.09;5064159;28;19980;-71
2021/11/04 11:05:35;;;;;;;;;;;;;;;-144.99;100.00;52450.13;5060305;28;19985;-71
2021/11/04 11:08:01;;;;;;;;;;;;;;;-144.99;100.00;52460.31;5059800;28;19985;-70
2021/11/04 11:10:28;;;;;;;;;;;;;;;-144.99;100.00;52476.63;5057495;28;20067;-70
2021/11/04 11:12:54;;;;;;;;;;;;;;;-144.99;100.00;52427.72;5052611;28;20240;-70
2021/11/04 11:15:22;;;;;;;;;;;;;;;-144.99;100.00;52468.47;5068233;28;20003;-69
2021/11/04 11:17:49;;;;;;;;;;;;;;;-144.99;100.00;52444.03;5062461;28;19954;-69
2021/11/04 11:20:16;;;;;;;;;;;;;;;-144.99;100.00;52448.09;5051769;28;19984;-70
2021/11/04 11:22:43;;;;;;;;;;;;;;;-144.99;100.00;52448.09;5061031;28;20003;-70
2021/11/04 11:25:09;;;;;;;;;;;;;;;-144.99;100.00;52464.41;5048463;28;20275;-70
2021/11/04 11:27:36;;;;;;;;;;;;;;;-144.99;100.00;52448.09;5048054;28;19981;-70
2021/11/04 11:30:08;;;;;;;;;;;;;;;-144.99;100.00;52458.28;5048422;28;19985;-72
2021/11/04 11:32:36;;;;;;;;;;;;;;;-144.99;100.00;52509.25;5068011;28;20005;-72
2021/11/04 11:35:16;;;;;;;;;;;;;;;-144.99;100.00;52472.56;5067982;28;19977;-70
2021/11/04 11:37:57;;;;;;;;;;;;;;;-144.99;100.00;52507.19;5067849;28;20019;-70
2021/11/04 11:40:25;;;;;;;;;;;;;;;-144.99;100.00;52484.78;5063448;28;19991;-71
2021/11/04 11:42:56;;;;;;;;;;;;;;;-144.99;100.00;52497.00;5062958;28;20004;-70
2021/11/04 11:45:22;;;;;;;;;;;;;;;-144.99;100.00;52488.84;5061782;28;19973;-70
2021/11/04 11:47:50;;;;;;;;;;;;;;;-144.99;100.00;52452.16;5066087;28;20418;-70
2021/11/04 11:50:18;;;;;;;;;;;;;;;-144.99;100.00;52454.22;5067962;28;19992;-70
2021/11/04 11:52:52;;;;;;;;;;;;;;;-144.99;100.00;52472.56;5067492;28;20000;-70
2021/11/04 11:55:19;;;;;;;;;;;;;;;-144.99;100.00;52439.94;5054739;28;19989;-70
2021/11/04 11:58:04;;;;;;;;;;;;;;;-144.99;100.00;52492.94;5061831;28;19988;-70
2021/11/04 12:00:45;;;;;;;;;;;;;;;-144.99;100.00;52439.94;5067923;28;20024;-71
2021/11/04 12:03:13;;;;;;;;;;;;;;;-144.99;100.00;52458.28;5062038;28;19997;-70
2021/11/04 12:05:39;;;;;;;;;;;;;;;-144.99;100.00;52427.72;5048380;28;20417;-70
2021/11/04 12:08:24;;;;;;;;;;;;;;;-144.99;100.00;52435.88;5054356;28;20075;-70
2021/11/04 12:10:51;;;;;;;;;;;;;;;-144.99;100.00;52472.56;5067267;28;19991;-73
2021/11/04 12:13:32;;;;;;;;;;;;;;;-144.99;100.00;52488.84;5061941;28;20105;-70
2021/11/04 12:16:15;;;;;;;;;;;;;;;-144.99;100.00;52419.56;5067479;28;19977;-70
2021/11/04 12:18:50;;;;;;;;;;;;;;;-144.99;100.00;52460.31;5053149;28;19985;-71
2021/11/04 12:21:21;;;;;;;;;;;;;;;-144.99;100.00;52472.56;5064438;28;19980;-70
2021/11/04 12:23:48;;;;;;;;;;;;;;;-144.99;100.00;52444.03;5067000;28;20400;-71